createdAt,value
2022-12-12T11:49:19.211Z,23.02
2022-12-12T11:53:44.752Z,18.50
2022-12-12T11:58:16.279Z,21.00
2022-12-12T12:02:51.910Z,19.58
2022-12-12T12:07:42.270Z,18.67
2022-12-12T12:12:17.314Z,20.38
2022-12-12T12:17:16.299Z,17.67
2022-12-12T12:21:51.150Z,19.70
2022-12-12T12:26:25.431Z,18.98
2022-12-12T12:31:05.928Z,19.40
2022-12-12T12:35:31.374Z,21.35
2022-12-12T12:40:11.409Z,20.35
2022-12-12T12:44:41.578Z,20.65
2022-12-12T12:49:10.418Z,21.75
2022-12-12T12:53:49.989Z,21.15
2022-12-12T12:58:21.591Z,21.98
2022-12-12T13:02:48.270Z,20.00
2022-12-12T13:07:25.505Z,20.77
2022-12-12T13:11:47.142Z,20.38
2022-12-12T13:16:24.861Z,21.10
2022-12-12T13:20:51.896Z,20.02
2022-12-12T13:25:48.339Z,22.23
2022-12-12T13:30:18.240Z,22.48
2022-12-12T13:34:43.779Z,21.23
2022-12-12T13:39:02.860Z,20.10
2022-12-12T13:43:38.137Z,18.75
2022-12-12T13:48:04.253Z,17.52
2022-12-12T13:52:23.876Z,17.98
2022-12-12T13:56:53.673Z,17.85
2022-12-12T14:01:34.473Z,17.25
2022-12-12T14:05:53.301Z,16.83
2022-12-12T14:10:23.431Z,17.13
2022-12-12T14:14:42.540Z,17.60
2022-12-12T14:19:06.288Z,16.85
2022-12-12T14:23:25.273Z,18.35
2022-12-12T14:27:49.037Z,25.23
2022-12-12T14:32:22.451Z,28.77
2022-12-12T14:37:02.737Z,18.83
2022-12-12T14:41:27.942Z,22.90
2022-12-12T14:45:50.936Z,19.98
2022-12-12T14:50:10.190Z,17.45
2022-12-12T14:54:27.451Z,16.52
2022-12-12T14:58:57.340Z,44.37
2022-12-12T15:03:15.402Z,80.13
2022-12-12T15:07:35.461Z,26.75
2022-12-12T15:11:54.816Z,23.15
2022-12-12T15:16:12.001Z,19.77
2022-12-12T15:20:32.052Z,20.90
2022-12-12T15:24:49.740Z,20.25
2022-12-12T15:29:14.744Z,21.83
2022-12-12T15:33:38.575Z,20.13
2022-12-12T15:38:00.672Z,24.90
2022-12-12T15:42:17.784Z,26.50
2022-12-12T15:46:35.144Z,31.87
2022-12-12T15:50:57.446Z,27.88
2022-12-12T15:55:20.923Z,24.45
2022-12-12T15:59:38.163Z,60.50
2022-12-12T16:03:59.707Z,26.10
2022-12-12T16:08:33.325Z,44.10
2022-12-12T16:13:22.168Z,36.72
2022-12-12T16:17:39.319Z,29.42
2022-12-12T16:21:56.624Z,16.70
2022-12-12T16:26:13.850Z,52.30
2022-12-12T16:30:31.108Z,29.07
2022-12-12T16:34:48.302Z,33.77
2022-12-12T16:39:06.000Z,23.13
2022-12-12T16:43:24.343Z,20.20
2022-12-12T16:47:41.670Z,22.10
2022-12-12T16:51:58.828Z,22.07
2022-12-12T16:56:16.002Z,27.47
2022-12-12T17:00:33.352Z,23.17
2022-12-12T17:04:51.204Z,21.20
2022-12-12T17:09:08.405Z,22.67
2022-12-12T17:13:26.247Z,25.30
2022-12-12T17:17:43.377Z,38.85
2022-12-12T17:22:00.842Z,26.83
2022-12-12T17:26:18.980Z,45.28
2022-12-12T17:30:37.008Z,38.63
2022-12-12T17:34:54.181Z,55.92
2022-12-12T17:39:11.368Z,46.87
2022-12-12T17:43:28.500Z,26.37
2022-12-12T17:47:45.761Z,22.73
2022-12-12T17:52:04.017Z,30.63
2022-12-12T17:56:24.970Z,33.78
2022-12-12T18:00:42.153Z,25.13
2022-12-12T18:04:59.721Z,22.40
2022-12-12T18:09:17.537Z,23.55
2022-12-12T18:13:36.326Z,23.60
2022-12-12T18:17:53.460Z,37.20
2022-12-12T18:22:10.752Z,29.57
2022-12-12T18:26:28.157Z,29.20
2022-12-12T18:30:48.529Z,26.98
2022-12-12T18:35:05.971Z,36.55
2022-12-12T18:39:23.110Z,45.78
2022-12-12T18:43:40.445Z,64.40
2022-12-12T18:47:57.542Z,51.87
2022-12-12T18:52:14.661Z,25.92
2022-12-12T18:56:32.555Z,22.93
2022-12-12T19:00:49.652Z,36.15
2022-12-12T19:05:07.301Z,32.03
2022-12-12T19:09:24.485Z,29.40
2022-12-12T19:13:42.964Z,21.47
2022-12-12T19:18:00.131Z,16.65
2022-12-12T19:22:43.795Z,10.60
2022-12-12T19:26:55.001Z,14.82
2022-12-12T19:31:16.287Z,12.40
2022-12-12T19:35:37.659Z,15.02
2022-12-12T19:39:55.081Z,12.30
2022-12-12T19:44:14.694Z,11.38
2022-12-12T19:48:32.243Z,7.93
2022-12-12T19:52:49.436Z,10.70
2022-12-12T19:57:06.544Z,10.88
2022-12-12T20:01:28.390Z,11.13
2022-12-12T20:05:49.165Z,11.02
2022-12-12T20:10:10.478Z,12.77
2022-12-12T20:14:30.319Z,27.30
2022-12-12T20:18:49.548Z,29.23
2022-12-12T20:23:07.967Z,14.23
2022-12-12T20:27:25.121Z,11.30
2022-12-12T20:31:45.358Z,10.73
2022-12-12T20:36:05.028Z,12.10
2022-12-12T20:40:22.602Z,11.70
2022-12-12T20:44:39.751Z,12.68
2022-12-12T20:48:58.685Z,12.57
2022-12-12T20:53:16.975Z,14.93
2022-12-12T20:57:34.067Z,12.40
2022-12-12T21:01:52.038Z,12.82
2022-12-12T21:06:17.788Z,12.93
2022-12-12T21:10:35.080Z,12.48
2022-12-12T21:14:52.171Z,13.23
2022-12-12T21:19:12.747Z,16.90
2022-12-12T21:23:30.497Z,21.92
2022-12-12T21:27:47.643Z,12.80
2022-12-12T21:32:05.249Z,15.63
2022-12-12T21:36:24.124Z,36.50
2022-12-12T21:40:41.246Z,14.55
2022-12-12T21:44:58.368Z,14.20
2022-12-12T21:49:28.144Z,12.80
2022-12-12T21:53:45.427Z,11.60
2022-12-12T21:58:02.660Z,12.23
2022-12-12T22:02:19.769Z,18.33
2022-12-12T22:06:37.206Z,14.00
2022-12-12T22:10:54.642Z,12.38
2022-12-12T22:15:12.047Z,12.23
2022-12-12T22:19:29.372Z,13.20
2022-12-12T22:23:50.628Z,14.10
2022-12-12T22:28:07.721Z,12.45
2022-12-12T22:32:24.827Z,13.67
2022-12-12T22:36:42.483Z,11.37
2022-12-12T22:40:59.842Z,11.65
2022-12-12T22:45:17.211Z,12.63
2022-12-12T22:49:34.495Z,14.23
2022-12-12T22:53:51.934Z,13.52
2022-12-12T22:58:09.036Z,14.55
2022-12-12T23:02:26.276Z,14.73
2022-12-12T23:06:43.632Z,13.45
2022-12-12T23:11:12.923Z,13.63
2022-12-12T23:15:30.476Z,13.73
2022-12-12T23:19:47.624Z,13.52
2022-12-12T23:24:06.345Z,14.52
2022-12-12T23:28:23.505Z,14.10
2022-12-12T23:32:40.646Z,13.82
2022-12-12T23:36:58.586Z,13.02
2022-12-12T23:41:16.662Z,12.70
2022-12-12T23:45:37.356Z,12.93
2022-12-12T23:49:54.570Z,12.75
2022-12-12T23:54:14.421Z,12.60
2022-12-12T23:58:31.568Z,12.48
